Ballina, New South Wales

7:02 AM AEST on September 27, 2016 (GMT +1000)
Ballina | | Change Station

Elev 20 ft 28.87 °S, 153.55 °E | Updated 8 seconds ago

Clear
Clear
61.5 °F
Feels Like 61.5 °F
N
7.0
Wind Variable Wind from WSW
Gusts 12.0 mph

Today
High -- | Low -- °F
--% Chance of Precip.
Yesterday
High -- | Low -- °F
Precip. -- in
Pressure 29.92 in
Visibility 6.2 miles
Clouds
Dew Point 48 °F
Humidity 61%
Rainfall 0.00 in
Snow Depth Not available.
5:29 AM 5:44 PM
Waning Crescent, 16% visible
METAR YBCG 262030Z AUTO 26005KT 9999 // NCD 14/09 Q1013
Pressure 29.92 in
Visibility 6.2 miles
Clouds
Dew Point 48 °F
Humidity 61%
Rainfall 0.00 in
Snow Depth Not available.
5:29 AM 5:44 PM
Waning Crescent, 16% visible
METAR YBCG 262030Z AUTO 26005KT 9999 // NCD 14/09 Q1013

10-Day Weather Forecast

Almanac

Astronomy

Sep. 27, 2016 Rise Set
Actual Time
Civil Twilight
Nautical Twilight
Astronomical Twilight
Moon
Length of Visible Light
Length of Day
Tomorrow will be .
, % of the Moon is Illuminated

Today's Extremes

Country Highs Country Lows

Community

WunderPhotos

Upload Photos

1,941,968 photos uploaded!

WunderBlog® & News

Nearby

Air Quality

  Air Quality AQ Index Pollutant
Not available.

Snow Depth

Station Depth Elevation

Earthquake Activity

City Distance Mag. Time & Date
Minimum magnitude displayed is 2.5.

Coastal Water Temperatures

Place Temperature

Stations

Nearby Weather Stations

Station Location Temp. Windchill Dew Point Humidity Wind Precip. Elev Updated Type